TimeMDT,TemperatureF,Dew PointF,Humidity,Sea Level PressureIn,VisibilityMPH,Wind Direction,Wind SpeedMPH,Gust SpeedMPH,PrecipitationIn,Events,Conditions,WindDirDegrees,DateUTC
12:14 AM,33.8,30.2,87,30.13,2.5,NE,10.4,-,0.00,Snow,Light Snow,50,2013-05-01 06:14:00
12:24 AM,33.8,30.2,87,30.13,3.0,ENE,10.4,-,0.00,Snow,Light Snow,60,2013-05-01 06:24:00
12:33 AM,33.8,30.2,87,30.13,7.0,East,10.4,-,0.00,Snow,Light Snow,80,2013-05-01 06:33:00
12:53 AM,33.1,30.0,89,30.14,10.0,East,6.9,-,0.00,,Overcast,80,2013-05-01 06:53:00
1:53 AM,33.1,30.0,89,30.18,10.0,Calm,Calm,-,N/A,,Overcast,0,2013-05-01 07:53:00
2:53 AM,30.9,25.0,79,30.19,10.0,NNE,5.8,-,N/A,,Partly Cloudy,30,2013-05-01 08:53:00
3:53 AM,28.9,23.0,78,30.22,10.0,NNE,4.6,-,N/A,,Mostly Cloudy,30,2013-05-01 09:53:00
4:53 AM,28.0,18.0,66,30.25,10.0,Calm,Calm,-,N/A,,Mostly Cloudy,0,2013-05-01 10:53:00
5:53 AM,28.9,17.1,61,30.29,10.0,Calm,Calm,-,N/A,,Overcast,0,2013-05-01 11:53:00
6:53 AM,28.0,16.0,61,30.35,10.0,NNW,5.8,-,N/A,,Scattered Clouds,340,2013-05-01 12:53:00
7:53 AM,33.1,19.0,56,30.38,10.0,WSW,5.8,-,N/A,,Scattered Clouds,250,2013-05-01 13:53:00
8:53 AM,33.1,27.0,78,30.41,10.0,SSW,5.8,-,N/A,,Scattered Clouds,210,2013-05-01 14:53:00
9:53 AM,37.9,19.0,47,30.45,10.0,NW,6.9,-,N/A,,Mostly Cloudy,310,2013-05-01 15:53:00
10:53 AM,39.9,14.0,35,30.46,10.0,ENE,5.8,-,N/A,,Mostly Cloudy,70,2013-05-01 16:53:00
11:53 AM,42.1,14.0,32,30.46,10.0,Variable,5.8,-,N/A,,Mostly Cloudy,0,2013-05-01 17:53:00
12:53 PM,46.0,14.0,28,30.46,10.0,WNW,10.4,17.3,N/A,,Mostly Cloudy,300,2013-05-01 18:53:00
1:53 PM,48.0,12.0,24,30.45,10.0,WNW,9.2,17.3,N/A,,Scattered Clouds,300,2013-05-01 19:53:00
2:53 PM,48.9,9.0,20,30.47,10.0,NW,8.1,-,N/A,,Scattered Clouds,320,2013-05-01 20:53:00
3:53 PM,51.1,6.1,16,30.47,10.0,WNW,10.4,18.4,N/A,,Scattered Clouds,300,2013-05-01 21:53:00
4:53 PM,51.1,3.9,15,30.46,10.0,Calm,Calm,-,N/A,,Scattered Clouds,0,2013-05-01 22:53:00
5:53 PM,51.1,5.0,15,30.47,10.0,Variable,3.5,-,N/A,,Partly Cloudy,0,2013-05-01 23:53:00
6:53 PM,52.0,3.0,14,30.47,10.0,WNW,4.6,-,N/A,,Partly Cloudy,300,2013-05-02 00:53:00
7:53 PM,48.0,10.9,22,30.49,10.0,West,8.1,-,N/A,,Partly Cloudy,280,2013-05-02 01:53:00
8:53 PM,41.0,15.1,35,30.54,10.0,West,5.8,-,N/A,,Clear,260,2013-05-02 02:53:00
9:53 PM,34.0,12.9,42,30.58,10.0,South,9.2,-,N/A,,Clear,190,2013-05-02 03:53:00
10:53 PM,36.0,10.9,36,30.59,10.0,South,9.2,-,N/A,,Clear,190,2013-05-02 04:53:00
11:53 PM,34.0,10.9,38,30.61,10.0,South,9.2,-,N/A,,Clear,190,2013-05-02 05:53:00